Time;durP1;ratioP1;P1;durP2;ratioP2;P2;SDS_P1;SDS_P2;PMS_P1;PMS_P2;Temp;Humidity;BMP_temperature;BMP_pressure;BME280_temperature;BME280_humidity;BME280_pressure;Samples;Min_cycle;Max_cycle;Signal;HPM_P1;HPM_P2
2021/09/22 00:02:21;;;;;;;1.50;1.27;;;;;;;5.64;100.00;99407.88;1644265;87;21008;-72
2021/09/22 00:04:54;;;;;;;2.22;1.55;;;;;;;5.60;100.00;99416.36;1666491;85;21002;-71
2021/09/22 00:07:24;;;;;;;3.27;1.87;;;;;;;5.57;100.00;99417.75;1669234;85;20945;-71
2021/09/22 00:09:58;;;;;;;2.37;1.47;;;;;;;5.54;100.00;99408.78;1700836;83;21046;-71
2021/09/22 00:12:32;;;;;;;2.40;1.75;;;;;;;5.52;100.00;99411.53;1688829;83;20953;-70
2021/09/22 00:15:08;;;;;;;2.02;1.62;;;;;;;5.52;100.00;99411.53;1705787;84;20902;-71
2021/09/22 00:17:40;;;;;;;4.08;1.70;;;;;;;5.51;100.00;99404.46;1689815;83;20973;-72
2021/09/22 00:20:12;;;;;;;2.62;1.45;;;;;;;5.51;100.00;99397.11;1707856;84;20986;-71
2021/09/22 00:22:41;;;;;;;3.42;1.62;;;;;;;5.50;100.00;99395.48;1695907;83;21821;-71
2021/09/22 00:25:14;;;;;;;1.70;1.07;;;;;;;5.51;100.00;99390.30;1705561;83;21025;-71
2021/09/22 00:27:49;;;;;;;4.30;1.80;;;;;;;5.53;100.00;99389.47;1689870;84;21026;-71
2021/09/22 00:30:23;;;;;;;2.27;1.70;;;;;;;5.50;100.00;99387.86;1676936;83;22135;-71
2021/09/22 00:32:54;;;;;;;;;;;;;;;5.50;100.00;99391.95;1703222;83;21013;-71
2021/09/22 00:35:22;;;;;;;3.33;2.08;;;;;;;5.51;100.00;99390.30;1701897;83;21167;-71
2021/09/22 00:37:51;;;;;;;2.70;1.92;;;;;;;5.50;100.00;99390.03;1699311;83;20954;-71
2021/09/22 00:40:24;;;;;;;3.98;2.27;;;;;;;5.52;100.00;99390.56;1689258;83;20985;-71
2021/09/22 00:42:51;;;;;;;3.72;2.10;;;;;;;5.49;100.00;99378.88;1684974;84;20992;-71
2021/09/22 00:45:20;;;;;;;3.52;2.27;;;;;;;5.51;100.00;99380.77;1694633;83;21056;-71
2021/09/22 00:47:49;;;;;;;2.67;2.00;;;;;;;5.54;100.00;99381.56;1707853;84;21804;-71
2021/09/22 00:50:26;;;;;;;3.80;2.27;;;;;;;5.54;100.00;99372.58;1700135;83;20909;-72
2021/09/22 00:53:03;;;;;;;3.17;2.30;;;;;;;5.53;100.00;99369.59;1704420;83;21068;-72
2021/09/22 00:55:42;;;;;;;4.35;2.35;;;;;;;5.52;100.00;99369.33;1704150;83;21560;-72
2021/09/22 00:58:05;;;;;;;3.60;2.72;;;;;;;5.51;100.00;99368.52;1697498;83;21421;-72
2021/09/22 01:00:37;;;;;;;5.17;2.60;;;;;;;5.51;100.00;99370.42;1690258;83;21098;-71
2021/09/22 01:03:05;;;;;;;4.53;2.40;;;;;;;5.51;100.00;99369.06;1685726;83;21017;-72
2021/09/22 01:05:32;;;;;;;8.65;3.42;;;;;;;5.50;100.00;99367.44;1703968;84;21021;-72
2021/09/22 01:08:07;;;;;;;5.75;2.65;;;;;;;5.48;100.00;99362.28;1698892;83;21492;-72
2021/09/22 01:10:43;;;;;;;5.45;2.37;;;;;;;5.47;100.00;99355.77;1686183;84;20993;-72
2021/09/22 01:13:18;;;;;;;6.15;2.12;;;;;;;5.50;100.00;99368.80;1686070;84;20919;-70
2021/09/22 01:15:53;;;;;;;4.47;2.77;;;;;;;5.50;100.00;99362.00;1689265;83;21001;-72
2021/09/22 01:18:27;;;;;;;2.80;2.10;;;;;;;5.51;100.00;99356.81;1682524;84;20986;-72
2021/09/22 01:20:57;;;;;;;4.33;2.70;;;;;;;5.51;100.00;99352.73;1693961;83;20901;-72
2021/09/22 01:23:29;;;;;;;5.12;2.50;;;;;;;5.49;100.00;99350.84;1674464;84;21080;-71
2021/09/22 01:25:59;;;;;;;5.75;2.75;;;;;;;5.51;100.00;99354.09;1692580;83;21174;-71
2021/09/22 01:28:34;;;;;;;3.35;2.40;;;;;;;5.50;100.00;99354.64;1700929;83;21556;-71
2021/09/22 01:31:03;;;;;;;5.97;3.20;;;;;;;5.49;100.00;99350.30;1701645;83;21028;-72
2021/09/22 01:33:35;;;;;;;7.33;3.08;;;;;;;5.49;100.00;99353.02;1701722;83;20898;-71
2021/09/22 01:38:55;;;;;;;4.47;3.05;;;;;;;5.49;100.00;99344.03;1674078;84;21043;-71
2021/09/22 01:41:21;;;;;;;5.58;2.83;;;;;;;5.47;100.00;99346.23;1697288;83;20997;-71
2021/09/22 01:44:00;;;;;;;4.80;2.77;;;;;;;5.46;100.00;99345.42;1707352;84;20942;-71
2021/09/22 01:46:36;;;;;;;5.92;3.30;;;;;;;5.46;100.00;99345.42;1706582;83;20965;-71
2021/09/22 01:49:06;;;;;;;5.53;3.05;;;;;;;5.44;100.00;99337.28;1707443;83;20941;-71
2021/09/22 01:51:39;;;;;;;6.00;2.72;;;;;;;5.45;100.00;99337.54;1687295;83;21861;-71
2021/09/22 01:54:16;;;;;;;4.25;2.70;;;;;;;5.44;100.00;99335.91;1687366;83;20957;-71
2021/09/22 01:56:50;;;;;;;3.85;2.55;;;;;;;5.42;100.00;99332.67;1671646;84;20997;-71
2021/09/22 01:59:23;;;;;;;3.65;2.40;;;;;;;5.42;100.00;99342.20;1678086;83;21537;-71
2021/09/22 02:01:59;;;;;;;3.30;1.92;;;;;;;5.41;100.00;99338.66;1677645;83;20905;-71
2021/09/22 02:04:31;;;;;;;3.83;2.25;;;;;;;5.41;100.00;99333.22;1687327;83;21315;-71
2021/09/22 02:07:06;;;;;;;4.70;2.15;;;;;;;5.41;100.00;99336.48;1696979;83;20998;-72
2021/09/22 02:09:39;;;;;;;2.77;2.10;;;;;;;5.40;100.00;99334.86;1633713;87;20995;-72
2021/09/22 02:12:14;;;;;;;5.40;2.65;;;;;;;5.38;100.00;99335.15;1688019;83;20988;-71
2021/09/22 02:14:48;;;;;;;4.75;1.70;;;;;;;5.39;100.00;99334.05;1710849;83;21456;-72
2021/09/22 02:17:22;;;;;;;4.17;2.08;;;;;;;5.42;100.00;99336.75;1691621;83;21495;-72
2021/09/22 02:19:57;;;;;;;3.65;2.00;;;;;;;5.39;100.00;99331.33;1704376;83;20922;-72
2021/09/22 02:22:47;;;;;;;3.35;2.27;;;;;;;5.39;100.00;99332.69;1630509;87;21474;-71
2021/09/22 02:25:20;;;;;;;3.08;2.12;;;;;;;5.38;100.00;99329.70;1597043;88;21625;-71
2021/09/22 02:27:49;;;;;;;4.72;2.30;;;;;;;5.38;100.00;99331.06;1662858;83;20934;-72
2021/09/22 02:30:20;;;;;;;4.72;2.27;;;;;;;5.38;100.00;99330.25;1689723;83;21595;-72
2021/09/22 02:32:49;;;;;;;2.85;1.80;;;;;;;5.40;100.00;99334.31;1705745;83;20992;-72
2021/09/22 02:35:20;;;;;;;2.98;2.12;;;;;;;5.43;100.00;99339.19;1707901;83;20894;-72
2021/09/22 02:38:06;;;;;;;3.85;2.12;;;;;;;5.45;100.00;99336.18;1693051;83;21096;-71
2021/09/22 02:40:41;;;;;;;4.10;2.50;;;;;;;5.46;100.00;99339.16;1699142;83;20958;-71
2021/09/22 02:43:16;;;;;;;3.17;2.20;;;;;;;5.45;100.00;99332.91;1696825;83;20995;-72
2021/09/22 02:45:46;;;;;;;3.33;2.27;;;;;;;5.46;100.00;99329.63;1688163;83;20946;-72
2021/09/22 02:48:22;;;;;;;3.37;2.65;;;;;;;5.47;100.00;99324.45;1699873;83;21013;-72
2021/09/22 02:50:53;;;;;;;3.55;2.25;;;;;;;5.45;100.00;99330.73;1702594;83;20993;-72
2021/09/22 02:53:24;;;;;;;4.75;2.55;;;;;;;5.44;100.00;99334.55;1703211;83;20958;-71
2021/09/22 02:55:54;;;;;;;3.67;2.55;;;;;;;5.42;100.00;99334.84;1676069;84;21591;-72
2021/09/22 02:58:26;;;;;;;3.22;2.77;;;;;;;5.42;100.00;99332.67;1692647;84;20867;-72
2021/09/22 03:00:59;;;;;;;4.75;2.55;;;;;;;5.43;100.00;99334.30;1697352;83;20910;-72
2021/09/22 03:03:27;;;;;;;3.60;2.35;;;;;;;5.43;100.00;99332.93;1695685;83;21010;-72
2021/09/22 03:06:01;;;;;;;3.72;2.42;;;;;;;5.43;100.00;99334.30;1703757;83;20958;-72
2021/09/22 03:08:30;;;;;;;4.37;2.50;;;;;;;5.43;100.00;99336.47;1698525;83;21144;-72
2021/09/22 03:11:06;;;;;;;3.22;2.05;;;;;;;5.43;100.00;99332.93;1707304;84;21461;-72
2021/09/22 03:13:39;;;;;;;3.37;2.12;;;;;;;5.41;100.00;99331.05;1696812;83;20992;-72
2021/09/22 03:16:13;;;;;;;3.65;2.83;;;;;;;5.40;100.00;99321.25;1689806;84;20945;-72
2021/09/22 03:18:43;;;;;;;3.47;2.47;;;;;;;5.40;100.00;99332.14;1703260;84;20990;-72
2021/09/22 03:21:18;;;;;;;4.10;2.90;;;;;;;5.40;100.00;99336.23;1676547;84;20997;-71
2021/09/22 03:23:48;;;;;;;3.22;2.52;;;;;;;5.40;100.00;99332.14;1701846;83;20890;-72
2021/09/22 03:26:27;;;;;;;3.27;2.65;;;;;;;5.40;100.00;99330.78;1701263;83;20878;-72
2021/09/22 03:28:59;;;;;;;6.28;2.67;;;;;;;5.41;100.00;99333.77;1700207;83;20941;-72
2021/09/22 03:31:35;;;;;;;4.50;2.67;;;;;;;5.41;100.00;99333.77;1641163;86;20937;-72
2021/09/22 03:34:06;;;;;;;3.10;2.62;;;;;;;5.40;100.00;99328.88;1667094;85;21499;-72
2021/09/22 03:36:34;;;;;;;;;;;;;;;5.38;100.00;99329.70;1672491;85;20944;-72
2021/09/22 03:39:03;;;;;;;7.78;3.90;;;;;;;5.37;100.00;99328.08;1689682;84;20430;-72
2021/09/22 03:41:38;;;;;;;4.72;2.90;;;;;;;5.37;100.00;99328.08;1701932;83;20966;-73
2021/09/22 03:44:12;;;;;;;4.30;2.67;;;;;;;5.37;100.00;99320.47;1696818;83;21453;-73
2021/09/22 03:46:40;;;;;;;4.97;3.58;;;;;;;5.40;100.00;99323.97;1705762;84;21143;-73
2021/09/22 03:49:09;;;;;;;3.95;2.90;;;;;;;5.41;100.00;99320.97;1683888;83;21040;-71
2021/09/22 03:51:44;;;;;;;5.67;3.83;;;;;;;5.43;100.00;99323.41;1683575;84;20975;-72
2021/09/22 03:54:16;;;;;;;4.70;3.40;;;;;;;5.46;100.00;99328.27;1703366;83;21579;-72
2021/09/22 03:56:47;;;;;;;4.70;3.43;;;;;;;5.46;100.00;99327.72;1706378;83;21536;-71
2021/09/22 03:59:20;;;;;;;4.47;3.10;;;;;;;5.49;100.00;99320.34;1683856;83;21585;-72
2021/09/22 04:01:52;;;;;;;5.08;3.30;;;;;;;5.51;100.00;99322.78;1696488;83;20905;-71
2021/09/22 04:04:28;;;;;;;;;;;;;;;5.52;100.00;99323.05;1687831;84;20984;-71
2021/09/22 04:06:56;;;;;;;6.17;3.90;;;;;;;5.56;100.00;99328.98;1709937;83;20121;-71
2021/09/22 04:09:29;;;;;;;4.20;2.95;;;;;;;5.56;100.00;99325.45;1710165;83;21036;-71
2021/09/22 04:12:05;;;;;;;5.33;3.90;;;;;;;5.53;100.00;99334.20;1685711;84;21054;-71
2021/09/22 04:14:39;;;;;;;4.95;3.70;;;;;;;5.50;100.00;99326.05;1703439;83;20930;-72
2021/09/22 04:17:11;;;;;;;5.75;4.00;;;;;;;5.50;100.00;99326.59;1695321;83;21013;-71
2021/09/22 04:19:39;;;;;;;6.25;3.60;;;;;;;5.50;100.00;99323.33;1699673;84;21484;-72
2021/09/22 04:22:09;;;;;;;4.70;3.40;;;;;;;5.52;100.00;99324.41;1687968;83;20993;-71
2021/09/22 04:24:45;;;;;;;5.20;3.72;;;;;;;5.49;100.00;99323.06;1705716;83;20946;-71
2021/09/22 04:27:20;;;;;;;5.58;3.67;;;;;;;5.54;100.00;99323.02;1707670;84;20902;-72
2021/09/22 04:30:01;;;;;;;7.97;4.20;;;;;;;5.56;100.00;99324.09;1704830;83;21040;-71
2021/09/22 04:32:48;;;;;;;6.90;4.30;;;;;;;5.55;100.00;99325.19;1699600;83;21077;-71
2021/09/22 04:35:37;;;;;;;6.80;3.98;;;;;;;5.56;100.00;99326.81;1707862;83;20902;-72
2021/09/22 04:38:25;;;;;;;8.10;4.37;;;;;;;5.55;100.00;99327.91;1703244;83;21162;-71
2021/09/22 04:41:13;;;;;;;9.03;5.00;;;;;;;5.54;100.00;99323.02;1668302;85;21012;-72
2021/09/22 04:44:06;;;;;;;6.28;3.60;;;;;;;5.54;100.00;99325.73;1612409;87;21523;-72
2021/09/22 04:46:39;;;;;;;7.25;4.30;;;;;;;5.55;100.00;99325.19;1665128;83;20965;-71
2021/09/22 04:49:12;;;;;;;7.95;4.85;;;;;;;5.55;100.00;99328.72;1630284;83;20978;-71
2021/09/22 04:52:01;;;;;;;6.03;4.67;;;;;;;5.53;100.00;99321.94;1671439;85;21166;-73
2021/09/22 04:54:49;;;;;;;6.75;4.90;;;;;;;5.52;100.00;99321.68;1701441;84;21433;-71
2021/09/22 04:57:37;;;;;;;9.05;4.97;;;;;;;5.49;100.00;99320.34;1680668;84;20870;-74
2021/09/22 05:00:27;;;;;;;7.72;4.25;;;;;;;5.51;100.00;99321.42;1689505;84;21000;-69
2021/09/22 05:03:13;;;;;;;8.55;4.80;;;;;;;5.53;100.00;99328.20;1707782;83;20950;-74
2021/09/22 05:05:58;;;;;;;6.33;3.83;;;;;;;5.53;100.00;99322.75;1700496;83;21158;-77
2021/09/22 05:08:43;;;;;;;8.75;4.33;;;;;;;5.55;100.00;99309.66;1707456;83;21048;-70
2021/09/22 05:11:30;;;;;;;7.22;4.40;;;;;;;5.59;100.00;99320.24;1707734;84;20886;-68
2021/09/22 05:14:24;;;;;;;5.35;3.87;;;;;;;5.61;100.00;99325.41;1681252;84;20883;-68
2021/09/22 05:17:04;;;;;;;8.53;3.35;;;;;;;5.62;100.00;99325.66;1636171;84;21014;-67
2021/09/22 05:19:54;;;;;;;9.75;4.33;;;;;;;5.65;100.00;99323.72;1693611;84;20921;-82
2021/09/22 05:22:38;;;;;;;6.53;4.03;;;;;;;5.68;100.00;99320.98;1642008;84;20899;-73
2021/09/22 05:25:28;;;;;;;6.47;4.00;;;;;;;5.69;100.00;99323.41;1662505;84;20928;-73
2021/09/22 05:28:16;;;;;;;7.30;4.37;;;;;;;5.71;100.00;99324.48;1701697;84;20904;-77
2021/09/22 05:31:08;;;;;;;5.37;3.92;;;;;;;5.74;100.00;99321.99;1692721;84;21510;-79
2021/09/22 05:33:58;;;;;;;6.42;4.10;;;;;;;5.74;100.00;99324.72;1672205;84;21098;-70
2021/09/22 05:36:47;;;;;;;9.43;4.60;;;;;;;5.73;100.00;99323.64;1693062;84;20901;-70
2021/09/22 05:39:34;;;;;;;7.55;4.97;;;;;;;5.68;100.00;99325.88;1698291;84;20944;-69
2021/09/22 05:42:25;;;;;;;6.35;4.05;;;;;;;5.67;100.00;99329.70;1698799;84;20948;-76
2021/09/22 05:45:14;;;;;;;10.63;6.42;;;;;;;5.67;100.00;99325.61;1697085;84;21480;-75
2021/09/22 05:48:00;;;;;;;8.28;5.40;;;;;;;5.67;100.00;99326.97;1695629;84;20907;-74
2021/09/22 05:50:47;;;;;;;9.40;5.58;;;;;;;5.68;100.00;99325.06;1693828;84;21091;-69
2021/09/22 05:53:32;;;;;;;5.72;4.12;;;;;;;5.69;100.00;99322.05;1699017;84;20949;-73
2021/09/22 05:56:17;;;;;;;10.55;4.95;;;;;;;5.71;100.00;99324.48;1673150;84;21011;-76
2021/09/22 05:59:06;;;;;;;6.58;4.55;;;;;;;5.72;100.00;99320.66;1663568;84;20982;-74
2021/09/22 06:01:54;;;;;;;7.92;4.45;;;;;;;5.74;100.00;99322.55;1657868;85;21174;-72
2021/09/22 06:04:39;;;;;;;6.62;3.98;;;;;;;5.78;100.00;99326.28;1666285;84;21036;-70
2021/09/22 06:07:27;;;;;;;5.67;3.08;;;;;;;5.80;100.00;99328.17;1695417;84;20902;-68
2021/09/22 06:10:18;;;;;;;6.05;3.80;;;;;;;5.80;100.00;99324.89;1699258;84;20982;-76
2021/09/22 06:12:52;;;;;;;6.00;4.08;;;;;;;5.84;100.00;99322.41;1661875;85;21037;-70
2021/09/22 06:15:27;;;;;;;5.97;3.25;;;;;;;5.86;100.00;99321.56;1671952;85;21533;-74
2021/09/22 06:17:56;;;;;;;5.45;3.45;;;;;;;5.87;100.00;99324.00;1678554;85;21140;-77
2021/09/22 06:20:30;;;;;;;4.70;3.70;;;;;;;5.87;100.00;99320.45;1675043;85;21073;-71
2021/09/22 06:22:56;;;;;;;5.97;3.75;;;;;;;5.87;100.00;99321.27;1679022;85;20965;-76
2021/09/22 06:25:25;;;;;;;9.18;4.05;;;;;;;5.88;100.00;99323.45;1664661;85;21575;-71
2021/09/22 06:27:56;;;;;;;10.60;4.20;;;;;;;5.91;100.00;99322.89;1679057;85;21180;-71
2021/09/22 06:30:27;;;;;;;4.90;3.62;;;;;;;5.99;100.00;99324.17;1679104;82;20946;-75
2021/09/22 06:33:03;;;;;;;9.10;4.35;;;;;;;6.05;100.00;99324.38;1648587;84;21032;-72
2021/09/22 06:35:39;;;;;;;5.42;4.17;;;;;;;6.10;100.00;99323.76;1701693;83;20949;-72
2021/09/22 06:38:13;;;;;;;6.87;3.67;;;;;;;6.20;100.00;99322.82;1685433;83;20951;-73
2021/09/22 06:40:53;;;;;;;4.97;3.80;;;;;;;6.27;100.00;99321.91;1699705;83;21176;-73
2021/09/22 06:43:21;;;;;;;5.20;3.45;;;;;;;6.33;100.00;99331.65;1705460;83;20945;-72
2021/09/22 06:45:55;;;;;;;6.62;3.08;;;;;;;6.38;100.00;99323.92;1673913;83;21001;-70
2021/09/22 06:48:26;;;;;;;4.20;2.75;;;;;;;6.39;100.00;99327.72;1703581;83;21003;-72
2021/09/22 06:50:56;;;;;;;6.05;3.47;;;;;;;6.41;100.00;99329.59;1707148;83;20918;-72
2021/09/22 06:53:26;;;;;;;5.33;3.20;;;;;;;6.44;100.00;99326.84;1707408;84;22331;-72
2021/09/22 06:55:56;;;;;;;4.95;3.15;;;;;;;6.42;100.00;99328.49;1706988;83;21503;-72
2021/09/22 06:58:28;;;;;;;4.37;2.98;;;;;;;6.45;100.00;99331.19;1682863;84;21029;-72
2021/09/22 07:01:01;;;;;;;5.30;3.27;;;;;;;6.44;100.00;99323.56;1697263;83;21634;-73
2021/09/22 07:03:34;;;;;;;6.22;3.35;;;;;;;6.43;100.00;99326.03;1704971;84;21012;-73
2021/09/22 07:06:06;;;;;;;5.50;2.77;;;;;;;6.39;100.00;99323.63;1707504;84;21116;-70
2021/09/22 07:08:40;;;;;;;4.92;3.37;;;;;;;6.36;100.00;99328.30;1680612;85;20977;-73
2021/09/22 07:11:13;;;;;;;5.92;3.22;;;;;;;6.37;100.00;99329.11;1693325;83;20988;-72
2021/09/22 07:13:44;;;;;;;5.72;2.95;;;;;;;6.40;100.00;99327.17;1701578;83;21089;-73
2021/09/22 07:16:16;;;;;;;6.28;3.80;;;;;;;6.42;100.00;99328.49;1698203;83;21005;-72
2021/09/22 07:18:48;;;;;;;5.55;4.17;;;;;;;6.43;100.00;99332.84;1698974;83;21449;-72
2021/09/22 07:21:18;;;;;;;4.72;3.65;;;;;;;6.45;100.00;99329.27;1684734;82;20909;-72
2021/09/22 07:23:57;;;;;;;8.78;5.28;;;;;;;6.49;100.00;99336.31;1664082;83;20965;-72
2021/09/22 07:26:30;;;;;;;8.28;4.92;;;;;;;6.57;100.00;99330.20;1664618;82;20972;-74
2021/09/22 07:29:10;;;;;;;10.05;5.80;;;;;;;6.66;100.00;99337.98;1661395;84;21058;-77
2021/09/22 07:31:46;;;;;;;8.43;5.20;;;;;;;6.73;100.00;99330.80;1644548;86;21531;-73
2021/09/22 07:34:20;;;;;;;9.18;5.28;;;;;;;6.78;100.00;99335.63;1656803;85;20928;-74
2021/09/22 07:36:53;;;;;;;7.45;5.00;;;;;;;6.81;100.00;99327.41;1682432;83;21576;-73
2021/09/22 07:39:22;;;;;;;12.03;4.55;;;;;;;6.83;100.00;99335.55;1706697;83;21635;-74
2021/09/22 07:41:53;;;;;;;5.92;3.58;;;;;;;6.84;100.00;99338.53;1675111;83;20987;-74
2021/09/22 07:44:24;;;;;;;7.92;4.20;;;;;;;6.85;100.00;99332.52;1685135;83;20929;-73
2021/09/22 07:46:52;;;;;;;8.55;3.98;;;;;;;6.82;100.00;99335.30;1689800;84;20913;-74
2021/09/22 07:49:26;;;;;;;10.18;5.65;;;;;;;6.77;99.69;99335.92;1696726;83;21008;-74
2021/09/22 07:51:58;;;;;;;8.20;4.10;;;;;;;6.75;99.71;99339.50;1704168;83;21559;-74
2021/09/22 07:54:28;;;;;;;7.12;3.70;;;;;;;6.77;99.88;99336.73;1697333;83;21576;-73
2021/09/22 07:57:02;;;;;;;5.45;3.50;;;;;;;6.81;99.68;99340.49;1696030;83;23201;-72
2021/09/22 07:59:32;;;;;;;4.35;2.62;;;;;;;6.85;99.66;99336.62;1691853;83;21042;-72
2021/09/22 08:02:03;;;;;;;6.45;2.92;;;;;;;6.87;98.71;99338.50;1698412;82;21157;-73
2021/09/22 08:04:32;;;;;;;4.20;3.37;;;;;;;6.93;99.27;99335.36;1678348;83;21037;-73
2021/09/22 08:07:02;;;;;;;4.75;3.12;;;;;;;6.98;98.25;99329.57;1692616;83;21096;-74
2021/09/22 08:09:32;;;;;;;7.75;3.58;;;;;;;7.00;97.20;99330.89;1685541;82;21556;-73
2021/09/22 08:12:05;;;;;;;4.75;3.37;;;;;;;6.95;96.26;99337.24;1657496;84;20965;-74
2021/09/22 08:14:36;;;;;;;5.55;3.90;;;;;;;6.91;96.69;99338.97;1681013;82;21524;-72
2021/09/22 08:17:07;;;;;;;9.05;3.80;;;;;;;6.90;96.77;99340.63;1675735;85;21151;-74
2021/09/22 08:19:35;;;;;;;8.68;3.90;;;;;;;6.88;95.91;99338.75;1670128;86;21064;-73
2021/09/22 08:22:04;;;;;;;7.42;3.37;;;;;;;6.88;96.50;99336.84;1661029;85;21127;-74
2021/09/22 08:24:34;;;;;;;10.20;3.02;;;;;;;6.98;96.97;99337.20;1670070;86;21016;-73
2021/09/22 08:27:04;;;;;;;4.33;2.35;;;;;;;7.05;96.89;99336.27;1656461;85;21131;-73
2021/09/22 08:29:35;;;;;;;5.42;3.33;;;;;;;7.13;97.32;99332.06;1653244;85;21562;-73
2021/09/22 08:32:09;;;;;;;6.28;3.85;;;;;;;7.24;98.06;99331.59;1661701;85;21593;-72
2021/09/22 08:34:43;;;;;;;;;;;;;;;7.34;98.09;99328.44;1672637;85;21165;-73
2021/09/22 08:37:11;;;;;;;11.97;4.08;;;;;;;7.37;97.42;99331.94;1662857;85;20104;-73
2021/09/22 08:39:42;;;;;;;19.87;5.40;;;;;;;7.34;97.09;99325.15;1663155;85;21125;-71
2021/09/22 08:42:10;;;;;;;17.73;5.30;;;;;;;7.29;96.70;99327.41;1664164;85;21058;-68
2021/09/22 08:44:41;;;;;;;20.45;5.85;;;;;;;7.25;96.64;99323.66;1663143;85;20908;-68
2021/09/22 08:47:10;;;;;;;32.88;6.95;;;;;;;7.21;96.31;99324.00;1670803;86;21171;-66
2021/09/22 08:49:37;;;;;;;34.98;7.35;;;;;;;7.13;96.60;99323.87;1666294;85;20911;-69
2021/09/22 08:52:08;;;;;;;9.73;5.47;;;;;;;7.10;97.09;99328.56;1663386;85;20987;-72
2021/09/22 08:54:40;;;;;;;14.30;4.83;;;;;;;7.09;97.02;99327.75;1668005;85;20917;-68
2021/09/22 08:57:09;;;;;;;16.25;4.65;;;;;;;7.04;95.93;99327.02;1658703;85;21643;-73
2021/09/22 08:59:38;;;;;;;14.47;5.33;;;;;;;6.98;96.30;99324.92;1670669;84;21531;-68
2021/09/22 09:02:19;;;;;;;11.03;4.70;;;;;;;6.96;96.53;99325.77;1666677;85;20939;-67
2021/09/22 09:05:03;;;;;;;;;;;;;;;6.95;96.63;99326.88;1667004;86;20929;-67
2021/09/22 09:07:34;;;;;;;9.28;5.15;;;;;;;6.96;96.70;99320.31;1668250;85;22088;-68
2021/09/22 09:10:10;;;;;;;9.60;5.33;;;;;;;6.98;96.83;99319.47;1665137;85;20924;-69
2021/09/22 09:12:41;;;;;;;9.43;5.12;;;;;;;7.05;97.33;99315.80;1660672;83;21705;-72
2021/09/22 09:15:17;;;;;;;7.33;4.22;;;;;;;7.16;97.42;99317.81;1656728;83;21029;-73
2021/09/22 09:17:49;;;;;;;8.93;4.58;;;;;;;7.30;97.15;99315.94;1690407;83;20957;-74
2021/09/22 09:20:23;;;;;;;6.00;3.72;;;;;;;7.40;96.41;99312.22;1712988;82;21058;-75
2021/09/22 09:23:14;;;;;;;6.00;3.02;;;;;;;7.51;96.45;99310.92;1694482;82;20974;-74
2021/09/22 09:25:44;;;;;;;3.60;2.70;;;;;;;7.64;95.83;99310.11;1721379;82;22088;-75
2021/09/22 09:28:36;;;;;;;6.10;2.98;;;;;;;7.73;94.24;99311.02;1692471;84;21022;-75
2021/09/22 09:31:10;;;;;;;4.45;3.17;;;;;;;7.75;94.35;99306.07;1690868;84;21047;-75
2021/09/22 09:33:56;;;;;;;5.72;2.75;;;;;;;7.76;92.83;99310.98;1690140;84;21099;-80
2021/09/22 09:36:50;;;;;;;4.87;2.90;;;;;;;7.73;93.20;99313.76;1688712;84;20963;-81
2021/09/22 09:39:24;;;;;;;2.25;1.87;;;;;;;7.70;92.57;99310.27;1691189;84;22212;-81
2021/09/22 09:41:56;;;;;;;2.35;1.52;;;;;;;7.67;91.50;99312.23;1689920;84;20975;-83
2021/09/22 09:44:33;;;;;;;2.95;2.10;;;;;;;7.59;90.57;99314.30;1673772;82;21465;-77
2021/09/22 09:47:10;;;;;;;3.17;1.80;;;;;;;7.54;91.29;99316.56;1672087;85;20999;-79
2021/09/22 09:49:40;;;;;;;5.42;1.90;;;;;;;7.53;91.14;99319.05;1663254;85;21539;-78
2021/09/22 09:52:11;;;;;;;2.52;1.95;;;;;;;7.52;91.48;99313.88;1666183;85;22136;-78
2021/09/22 09:54:44;;;;;;;2.67;1.98;;;;;;;7.51;91.41;99310.92;1666600;84;21158;-74
2021/09/22 09:57:15;;;;;;;3.40;2.45;;;;;;;7.54;91.04;99311.66;1617371;88;21013;-76
2021/09/22 09:59:47;;;;;;;4.30;2.60;;;;;;;7.55;89.99;99311.36;1601424;87;21044;-76
2021/09/22 10:02:33;;;;;;;5.40;3.35;;;;;;;7.57;90.98;99311.87;1648840;86;21306;-76
2021/09/22 10:05:09;;;;;;;4.58;3.15;;;;;;;7.66;91.87;99309.80;1652558;86;20980;-76
2021/09/22 10:07:45;;;;;;;5.90;3.15;;;;;;;7.75;90.46;99307.44;1668961;85;21052;-76
2021/09/22 10:10:19;;;;;;;5.60;3.55;;;;;;;7.76;90.34;99303.59;1639122;85;20990;-76
2021/09/22 10:12:54;;;;;;;5.35;2.95;;;;;;;7.81;90.04;99308.15;1646706;86;21032;-77
2021/09/22 10:15:30;;;;;;;5.62;2.77;;;;;;;7.82;89.08;99307.03;1699682;84;21032;-76
2021/09/22 10:17:58;;;;;;;8.98;3.40;;;;;;;7.79;87.50;99307.09;1665371;85;21069;-76
2021/09/22 10:20:30;;;;;;;6.10;3.05;;;;;;;7.71;88.10;99306.98;1663248;85;21121;-76
2021/09/22 10:23:00;;;;;;;6.22;3.40;;;;;;;7.67;88.87;99310.06;1663151;85;21061;-76
2021/09/22 10:25:37;;;;;;;4.35;2.92;;;;;;;7.67;89.54;99308.69;1631249;87;20943;-77
2021/09/22 10:28:16;;;;;;;5.85;3.22;;;;;;;7.69;89.92;99314.66;1631804;85;20951;-79
2021/09/22 10:30:54;;;;;;;6.30;3.80;;;;;;;7.71;90.21;99320.08;1703465;84;21542;-83
2021/09/22 10:33:33;;;;;;;5.50;3.60;;;;;;;7.73;90.75;99310.22;1707851;83;21568;-80
2021/09/22 10:36:04;;;;;;;6.97;4.20;;;;;;;7.75;90.81;99317.00;1696661;83;20989;-78
2021/09/22 10:38:42;;;;;;;9.70;4.70;;;;;;;7.71;90.42;99311.88;1699369;83;20973;-77
2021/09/22 10:41:11;;;;;;;9.45;4.95;;;;;;;7.66;90.47;99305.16;1696210;84;20893;-77
2021/09/22 10:43:47;;;;;;;9.48;5.37;;;;;;;7.59;90.24;99304.18;1700399;83;21233;-77
2021/09/22 10:46:18;;;;;;;9.70;5.00;;;;;;;7.55;90.73;99311.36;1698573;83;20957;-78
2021/09/22 10:49:01;;;;;;;6.72;3.52;;;;;;;7.54;90.65;99307.00;1646800;85;21115;-78
2021/09/22 10:51:44;;;;;;;7.53;4.03;;;;;;;7.56;90.81;99309.44;1674242;85;20914;-70
2021/09/22 10:54:28;;;;;;;6.55;4.25;;;;;;;7.63;91.10;99306.56;1672397;85;21417;-76
2021/09/22 10:56:59;;;;;;;5.78;3.80;;;;;;;7.77;90.54;99298.38;1700406;84;21092;-78
2021/09/22 10:59:38;;;;;;;7.08;4.25;;;;;;;7.85;89.47;99298.23;1725884;82;20949;-78
2021/09/22 11:02:09;;;;;;;5.30;3.75;;;;;;;7.87;89.61;99297.38;1701848;83;21413;-79
2021/09/22 11:04:58;;;;;;;3.80;2.75;;;;;;;7.86;88.92;99295.20;1683755;84;21032;-80
2021/09/22 11:08:03;;;;;;;4.30;3.02;;;;;;;7.82;87.95;99292.81;1686189;83;20954;-81
2021/09/22 11:10:54;;;;;;;5.50;3.30;;;;;;;7.78;87.74;99297.27;1688522;84;21560;-80
2021/09/22 11:13:28;;;;;;;4.60;3.50;;;;;;;7.74;87.85;99295.44;1691317;83;20989;-82
2021/09/22 11:16:18;;;;;;;3.10;2.60;;;;;;;7.70;87.93;99297.97;1697249;83;20918;-80
2021/09/22 11:18:51;;;;;;;3.70;2.60;;;;;;;7.68;88.26;99289.27;1669755;82;20878;-79
2021/09/22 11:21:27;;;;;;;2.65;2.40;;;;;;;7.69;88.21;99293.62;1689477;84;21001;-80
2021/09/22 11:23:55;;;;;;;3.67;2.60;;;;;;;7.75;89.12;99299.23;1697286;83;21158;-78
2021/09/22 11:26:25;;;;;;;4.92;2.70;;;;;;;7.81;89.13;99298.03;1701513;83;21552;-81
2021/09/22 11:28:59;;;;;;;2.92;2.30;;;;;;;7.85;89.14;99297.67;1683100;83;20934;-81
2021/09/22 11:31:30;;;;;;;3.42;2.15;;;;;;;7.87;87.76;99295.45;1696322;83;21489;-77
2021/09/22 11:34:01;;;;;;;3.83;2.50;;;;;;;7.88;87.79;99298.44;1680318;84;20962;-79
2021/09/22 11:36:32;;;;;;;3.42;2.45;;;;;;;7.89;87.56;99294.59;1699976;84;22852;-79
2021/09/22 11:39:11;;;;;;;3.12;2.50;;;;;;;7.87;88.15;99288.62;1697859;83;20950;-79
2021/09/22 11:41:45;;;;;;;3.90;2.15;;;;;;;7.88;88.22;99288.87;1706338;83;20926;-80
2021/09/22 11:44:19;;;;;;;3.80;2.10;;;;;;;7.87;86.88;99285.88;1702927;83;20909;-79
2021/09/22 11:47:03;;;;;;;3.27;2.17;;;;;;;7.84;87.11;99285.13;1707848;84;20906;-79
2021/09/22 11:49:43;;;;;;;4.70;2.47;;;;;;;7.84;86.90;99283.75;1702478;83;20890;-79
2021/09/22 11:52:21;;;;;;;2.80;2.10;;;;;;;7.82;86.75;99283.81;1702361;83;21116;-80
2021/09/22 11:54:57;;;;;;;4.87;2.72;;;;;;;7.83;88.08;99286.23;1716598;83;21074;-79
2021/09/22 11:57:30;;;;;;;3.77;2.45;;;;;;;7.86;87.41;99287.00;1702780;83;21013;-80
2021/09/22 12:00:04;;;;;;;2.77;2.10;;;;;;;7.91;87.28;99288.82;1707675;83;20962;-80
2021/09/22 12:02:36;;;;;;;3.65;2.58;;;;;;;7.90;85.80;99286.64;1654924;84;20974;-77
2021/09/22 12:05:06;;;;;;;3.70;3.00;;;;;;;7.91;86.36;99282.80;1693899;83;21477;-81
2021/09/22 12:07:56;;;;;;;7.85;4.67;;;;;;;7.96;85.69;99288.72;1697612;83;21005;-78
2021/09/22 12:10:13;;;;;;;11.68;4.90;;;;;;;7.99;86.10;99284.00;1688995;83;21616;-79
2021/09/22 12:12:40;;;;;;;9.03;5.03;;;;;;;8.05;85.39;99289.63;1692619;83;20863;-81
2021/09/22 12:15:14;;;;;;;7.87;4.40;;;;;;;8.11;85.75;99284.83;1701074;83;21153;-79
2021/09/22 12:17:47;;;;;;;5.92;3.20;;;;;;;8.15;85.47;99284.47;1692726;83;21063;-80